createdAt,value
2022-07-29T00:02:16.726Z,2.78
2022-07-29T00:04:43.602Z,2.80
2022-07-29T00:07:10.550Z,2.80
2022-07-29T00:09:44.905Z,3.08
2022-07-29T00:12:17.972Z,2.80
2022-07-29T00:14:53.514Z,2.70
2022-07-29T00:17:20.260Z,2.90
2022-07-29T00:19:46.922Z,3.20
2022-07-29T00:22:13.717Z,2.70
2022-07-29T00:24:40.592Z,2.95
2022-07-29T00:27:07.732Z,3.10
2022-07-29T00:29:35.055Z,3.30
2022-07-29T00:32:03.274Z,2.80
2022-07-29T00:34:49.335Z,3.00
2022-07-29T00:37:16.043Z,2.95
2022-07-29T00:39:42.845Z,2.65
2022-07-29T00:42:10.631Z,2.53
2022-07-29T00:44:41.862Z,2.80
2022-07-29T00:47:09.673Z,2.50
2022-07-29T00:49:36.897Z,2.53
2022-07-29T00:52:06.486Z,2.72
2022-07-29T00:54:34.819Z,2.70
2022-07-29T00:57:01.870Z,2.60
2022-07-29T00:59:34.882Z,2.70
2022-07-29T01:02:03.248Z,2.90
2022-07-29T01:04:30.803Z,2.90
2022-07-29T01:07:00.072Z,2.30
2022-07-29T01:09:45.174Z,2.70
2022-07-29T01:12:18.722Z,2.78
2022-07-29T01:14:46.961Z,2.80
2022-07-29T01:17:21.921Z,2.40
2022-07-29T01:20:31.365Z,2.58
2022-07-29T01:23:55.864Z,2.53
2022-07-29T01:26:44.339Z,2.92
2022-07-29T01:29:36.080Z,2.58
2022-07-29T01:32:28.526Z,3.05
2022-07-29T01:35:10.731Z,2.67
2022-07-29T01:37:39.796Z,2.78
2022-07-29T01:40:12.070Z,2.80
2022-07-29T01:42:46.614Z,3.20
2022-07-29T01:45:43.222Z,2.70
2022-07-29T01:48:16.232Z,2.92
2022-07-29T01:50:52.109Z,2.75
2022-07-29T01:53:38.977Z,2.80
2022-07-29T01:56:08.203Z,2.72
2022-07-29T01:58:36.399Z,2.67
2022-07-29T02:01:03.911Z,2.92
2022-07-29T02:03:31.341Z,3.35
2022-07-29T02:05:58.641Z,3.78
2022-07-29T02:08:26.384Z,3.10
2022-07-29T02:10:54.605Z,3.25
2022-07-29T02:13:23.513Z,2.95
2022-07-29T02:15:51.517Z,3.17
2022-07-29T02:18:19.828Z,3.42
2022-07-29T02:20:49.679Z,3.28
2022-07-29T02:23:24.660Z,2.85
2022-07-29T02:25:54.608Z,3.10
2022-07-29T02:28:25.783Z,3.40
2022-07-29T02:30:53.919Z,3.10
2022-07-29T02:33:22.869Z,2.90
2022-07-29T02:35:49.704Z,2.92
2022-07-29T02:38:35.812Z,3.42
2022-07-29T02:41:05.578Z,3.20
2022-07-29T02:43:32.863Z,3.25
2022-07-29T02:46:00.480Z,3.28
2022-07-29T02:48:38.133Z,3.08
2022-07-29T02:51:44.123Z,3.20
2022-07-29T02:54:09.088Z,3.22
2022-07-29T02:56:36.217Z,3.22
2022-07-29T02:59:05.670Z,3.17
2022-07-29T03:01:34.026Z,3.03
2022-07-29T03:04:03.149Z,3.38
2022-07-29T03:06:38.477Z,3.17
2022-07-29T03:09:12.542Z,3.15
2022-07-29T03:11:46.137Z,3.65
2022-07-29T03:14:18.835Z,3.45
2022-07-29T03:16:46.270Z,3.60
2022-07-29T03:19:13.057Z,3.10
2022-07-29T03:21:40.025Z,3.13
2022-07-29T03:24:10.284Z,3.05
2022-07-29T03:26:37.518Z,2.85
2022-07-29T03:29:04.153Z,2.90
2022-07-29T03:31:30.832Z,2.88
2022-07-29T03:33:58.492Z,2.90
2022-07-29T03:36:27.842Z,2.97
2022-07-29T03:38:55.601Z,3.20
2022-07-29T03:41:23.355Z,3.13
2022-07-29T03:43:50.975Z,2.72
2022-07-29T03:46:18.486Z,3.42
2022-07-29T03:48:50.144Z,3.42
2022-07-29T03:51:16.823Z,3.25
2022-07-29T03:53:43.647Z,3.17
2022-07-29T03:56:11.617Z,2.90
2022-07-29T03:58:38.780Z,3.03
2022-07-29T04:01:05.444Z,2.80
2022-07-29T04:03:32.233Z,3.08
2022-07-29T04:06:07.101Z,2.90
2022-07-29T04:08:34.836Z,2.80
2022-07-29T04:11:02.500Z,2.83
2022-07-29T04:13:29.481Z,3.25
2022-07-29T04:15:56.284Z,2.83
2022-07-29T04:18:23.227Z,3.60
2022-07-29T04:20:50.064Z,3.70
2022-07-29T04:23:16.692Z,3.05
2022-07-29T04:25:44.262Z,3.28
2022-07-29T04:28:11.438Z,3.28
2022-07-29T04:30:38.737Z,3.35
2022-07-29T04:33:07.316Z,3.30
2022-07-29T04:35:38.912Z,3.30
2022-07-29T04:38:17.168Z,3.88
2022-07-29T04:40:44.073Z,3.45
2022-07-29T04:43:10.794Z,3.40
2022-07-29T04:45:39.812Z,3.40
2022-07-29T04:48:06.581Z,2.88
2022-07-29T04:50:33.444Z,3.05
2022-07-29T04:52:59.997Z,3.38
2022-07-29T04:55:26.856Z,3.60
2022-07-29T04:57:53.452Z,3.05
2022-07-29T05:00:20.162Z,3.60
2022-07-29T05:02:46.817Z,3.33
2022-07-29T05:05:13.483Z,3.30
2022-07-29T05:07:42.029Z,3.10
2022-07-29T05:10:09.622Z,3.05
2022-07-29T05:12:36.461Z,2.88
2022-07-29T05:15:03.297Z,3.10
2022-07-29T05:17:29.996Z,3.38
2022-07-29T05:19:56.669Z,3.08
2022-07-29T05:22:23.252Z,3.00
2022-07-29T05:24:49.838Z,3.08
2022-07-29T05:27:16.350Z,3.22
2022-07-29T05:29:45.565Z,3.20
2022-07-29T05:32:13.524Z,2.88
2022-07-29T05:34:51.241Z,2.80
2022-07-29T05:37:20.283Z,3.10
2022-07-29T05:39:50.580Z,3.20
2022-07-29T05:42:23.225Z,3.45
2022-07-29T05:44:49.765Z,2.80
2022-07-29T05:47:17.010Z,3.42
2022-07-29T05:49:43.583Z,2.97
2022-07-29T05:52:10.297Z,3.15
2022-07-29T05:54:37.281Z,3.10
2022-07-29T05:57:04.426Z,3.10
2022-07-29T05:59:31.012Z,2.90
2022-07-29T06:01:58.633Z,2.83
2022-07-29T06:04:25.500Z,3.05
2022-07-29T06:06:52.180Z,2.83
2022-07-29T06:09:18.741Z,2.95
2022-07-29T06:11:45.428Z,2.70
2022-07-29T06:14:12.235Z,3.40
2022-07-29T06:16:38.982Z,2.75
2022-07-29T06:19:05.783Z,2.60
2022-07-29T06:21:32.542Z,2.60
2022-07-29T06:23:59.207Z,2.63
2022-07-29T06:26:30.877Z,3.10
2022-07-29T06:28:58.580Z,2.83
2022-07-29T06:31:25.198Z,2.75
2022-07-29T06:33:51.903Z,2.55
2022-07-29T06:36:21.362Z,2.60
2022-07-29T06:38:51.243Z,2.88
2022-07-29T06:41:19.012Z,2.97
2022-07-29T06:43:51.944Z,2.60
2022-07-29T06:46:20.575Z,2.80
2022-07-29T06:48:48.540Z,2.80
2022-07-29T06:51:15.169Z,2.78
2022-07-29T06:53:58.117Z,3.00
2022-07-29T06:56:28.687Z,2.58
2022-07-29T06:58:55.459Z,2.70
2022-07-29T07:01:22.188Z,2.50
2022-07-29T07:03:49.202Z,2.78
2022-07-29T07:06:15.949Z,2.80
2022-07-29T07:08:42.619Z,3.05
2022-07-29T07:11:09.753Z,2.92
2022-07-29T07:13:36.714Z,2.78
2022-07-29T07:16:04.231Z,2.70
2022-07-29T07:18:30.768Z,2.60
2022-07-29T07:20:59.089Z,2.63
2022-07-29T07:23:25.862Z,2.97
2022-07-29T07:25:52.625Z,2.65
2022-07-29T07:28:24.513Z,2.45
2022-07-29T07:30:51.971Z,2.70
2022-07-29T07:33:19.909Z,2.58
2022-07-29T07:35:46.507Z,2.65
2022-07-29T07:38:13.379Z,3.00
2022-07-29T07:40:40.000Z,2.92
2022-07-29T07:43:09.285Z,3.00
2022-07-29T07:45:38.141Z,2.97
2022-07-29T07:48:05.861Z,3.35
2022-07-29T07:50:32.636Z,3.22
2022-07-29T07:52:59.411Z,3.63
2022-07-29T07:55:27.252Z,3.00
2022-07-29T07:57:55.143Z,3.47
2022-07-29T08:00:23.113Z,3.70
2022-07-29T08:02:51.206Z,3.20
2022-07-29T08:05:18.684Z,3.88
2022-07-29T08:07:47.411Z,3.50
2022-07-29T08:10:37.942Z,3.83
2022-07-29T08:13:08.332Z,3.83
2022-07-29T08:15:35.507Z,3.42
2022-07-29T08:18:07.904Z,3.30
2022-07-29T08:20:36.525Z,3.50
2022-07-29T08:23:05.417Z,4.05
2022-07-29T08:25:32.101Z,3.65
2022-07-29T08:28:00.103Z,3.50
2022-07-29T08:30:26.900Z,3.45
2022-07-29T08:32:55.175Z,3.47
2022-07-29T08:35:22.975Z,3.20
2022-07-29T08:37:49.838Z,3.60
2022-07-29T08:40:16.608Z,3.30
2022-07-29T08:42:43.452Z,3.30
2022-07-29T08:45:10.577Z,3.63
2022-07-29T08:47:42.193Z,3.90
2022-07-29T08:50:09.993Z,3.00
2022-07-29T08:52:38.404Z,3.30
2022-07-29T08:55:06.886Z,3.67
2022-07-29T08:57:34.228Z,3.40
2022-07-29T09:00:08.026Z,3.80
2022-07-29T09:02:41.286Z,3.45
2022-07-29T09:05:08.260Z,3.70
2022-07-29T09:07:35.437Z,3.40
2022-07-29T09:10:02.531Z,3.38
2022-07-29T09:12:32.734Z,3.30
2022-07-29T09:15:01.468Z,3.72
2022-07-29T09:17:54.172Z,3.92
2022-07-29T09:20:25.067Z,4.45
2022-07-29T09:25:37.234Z,3.50
2022-07-29T09:28:12.027Z,3.20
2022-07-29T09:30:59.244Z,3.60
2022-07-29T09:33:35.427Z,3.42
2022-07-29T09:36:09.681Z,3.20
2022-07-29T09:38:38.245Z,3.42
2022-07-29T09:41:06.736Z,3.22
2022-07-29T09:43:34.181Z,3.03
2022-07-29T09:46:14.514Z,3.25
2022-07-29T09:48:41.325Z,3.33
2022-07-29T09:51:25.531Z,3.03
2022-07-29T09:53:56.853Z,3.63
2022-07-29T09:56:42.448Z,3.10
2022-07-29T09:59:10.033Z,2.88
2022-07-29T10:01:37.032Z,3.20
2022-07-29T10:04:03.846Z,3.35
2022-07-29T10:06:30.477Z,3.75
2022-07-29T10:09:09.317Z,3.20
2022-07-29T10:11:48.831Z,3.00
2022-07-29T10:14:22.761Z,3.35
2022-07-29T10:16:49.324Z,3.10
2022-07-29T10:19:16.067Z,3.20
2022-07-29T10:21:45.101Z,2.97
2022-07-29T10:24:15.010Z,3.08
2022-07-29T10:26:42.026Z,3.03
2022-07-29T10:29:08.781Z,3.10
2022-07-29T10:31:48.457Z,3.30
2022-07-29T10:34:21.982Z,3.20
2022-07-29T10:37:01.196Z,3.50
2022-07-29T10:39:44.664Z,3.30
2022-07-29T10:42:33.468Z,3.78
2022-07-29T10:45:02.082Z,3.40
2022-07-29T10:47:31.032Z,3.50
2022-07-29T10:50:03.940Z,3.40
2022-07-29T10:52:57.311Z,3.67
2022-07-29T10:55:44.580Z,3.30
2022-07-29T10:58:21.622Z,3.55
2022-07-29T11:00:53.153Z,3.72
2022-07-29T11:03:41.696Z,3.92
2022-07-29T11:06:18.164Z,3.78
2022-07-29T11:09:20.286Z,3.80
2022-07-29T11:12:47.086Z,4.28
2022-07-29T11:15:19.744Z,3.90
2022-07-29T11:17:59.680Z,3.60
2022-07-29T11:20:46.397Z,4.00
2022-07-29T11:23:33.560Z,3.50
2022-07-29T11:26:18.545Z,4.07
2022-07-29T11:28:55.750Z,4.00
2022-07-29T11:31:44.553Z,3.85
2022-07-29T11:34:36.615Z,3.90
2022-07-29T11:37:09.338Z,4.28
2022-07-29T11:39:37.688Z,3.95
2022-07-29T11:42:32.468Z,4.55
2022-07-29T11:45:41.701Z,4.53
2022-07-29T11:50:45.894Z,4.47
2022-07-29T11:53:15.383Z,4.10
2022-07-29T11:55:51.541Z,4.60
2022-07-29T11:58:24.876Z,4.50
2022-07-29T12:00:52.121Z,4.10
2022-07-29T12:03:35.157Z,4.15
2022-07-29T12:06:14.830Z,4.47
2022-07-29T12:07:02.024Z,4.30
2022-07-29T12:08:44.352Z,4.35
2022-07-29T12:11:21.475Z,4.10
2022-07-29T12:13:49.885Z,4.07
2022-07-29T12:16:25.833Z,4.80
2022-07-29T12:19:04.562Z,4.57
2022-07-29T12:21:56.825Z,4.22
2022-07-29T12:24:26.937Z,4.68
2022-07-29T12:27:00.715Z,4.97
2022-07-29T12:29:35.330Z,4.85
2022-07-29T12:32:03.553Z,4.57
2022-07-29T12:34:30.791Z,4.22
2022-07-29T12:36:57.693Z,4.78
2022-07-29T12:39:27.626Z,4.50
2022-07-29T12:42:04.595Z,4.95
2022-07-29T12:44:51.455Z,4.47
2022-07-29T12:47:19.181Z,4.65
2022-07-29T12:49:48.843Z,4.80
2022-07-29T12:52:35.047Z,4.85
2022-07-29T12:55:02.456Z,4.55
2022-07-29T12:57:30.226Z,4.30
2022-07-29T13:00:13.654Z,4.20
2022-07-29T13:02:41.816Z,4.32
2022-07-29T13:05:13.580Z,4.57
2022-07-29T13:07:55.347Z,4.30
2022-07-29T13:10:24.951Z,4.00
2022-07-29T13:13:11.442Z,4.32
2022-07-29T13:15:41.459Z,3.90
2022-07-29T13:18:31.095Z,3.92
2022-07-29T13:20:58.576Z,3.80
2022-07-29T13:23:25.381Z,3.60
2022-07-29T13:25:52.180Z,3.17
2022-07-29T13:28:18.813Z,3.30
2022-07-29T13:30:48.108Z,3.63
2022-07-29T13:33:15.385Z,3.13
2022-07-29T13:35:42.157Z,2.97
2022-07-29T13:38:08.928Z,3.22
2022-07-29T13:40:36.384Z,3.00
2022-07-29T13:43:03.228Z,2.70
2022-07-29T13:45:30.810Z,2.70
2022-07-29T13:47:57.429Z,2.50
2022-07-29T13:50:24.193Z,2.50
2022-07-29T13:52:51.896Z,2.75
2022-07-29T13:55:18.608Z,2.30
2022-07-29T13:57:45.385Z,2.50
2022-07-29T14:00:13.229Z,2.25
2022-07-29T14:02:39.851Z,2.38
2022-07-29T14:05:08.655Z,2.22
2022-07-29T14:07:35.661Z,2.20
2022-07-29T14:10:02.350Z,1.92
2022-07-29T14:12:28.922Z,1.92
2022-07-29T14:14:55.531Z,1.88
2022-07-29T14:17:22.804Z,1.90
2022-07-29T14:19:49.803Z,1.85
2022-07-29T14:22:16.493Z,1.70
2022-07-29T14:24:43.058Z,1.90
2022-07-29T14:27:09.737Z,1.73
2022-07-29T14:29:38.050Z,1.70
2022-07-29T14:32:09.957Z,1.50
2022-07-29T14:34:37.789Z,1.80
2022-07-29T14:37:06.621Z,1.48
2022-07-29T14:39:36.942Z,2.05
2022-07-29T14:42:06.248Z,1.60
2022-07-29T14:44:32.939Z,1.60
2022-07-29T14:47:01.196Z,1.50
2022-07-29T14:49:34.558Z,1.58
2022-07-29T14:52:01.410Z,1.73
2022-07-29T14:54:28.247Z,1.48
2022-07-29T14:56:58.036Z,1.50
2022-07-29T14:59:25.110Z,1.60
2022-07-29T15:01:51.743Z,1.48
2022-07-29T15:04:18.346Z,1.60
2022-07-29T15:06:45.196Z,1.80
2022-07-29T15:09:11.878Z,1.58
2022-07-29T15:11:38.956Z,1.63
2022-07-29T15:14:06.782Z,1.73
2022-07-29T15:16:34.193Z,1.70
2022-07-29T15:19:01.994Z,1.77
2022-07-29T15:21:28.724Z,2.05
2022-07-29T15:23:55.571Z,2.72
2022-07-29T15:26:22.468Z,2.70
2022-07-29T15:28:49.117Z,2.50
2022-07-29T15:31:15.897Z,2.80
2022-07-29T15:33:42.660Z,2.72
2022-07-29T15:36:09.623Z,3.00
2022-07-29T15:38:36.308Z,3.13
2022-07-29T15:41:08.854Z,3.10
2022-07-29T15:43:38.525Z,2.65
2022-07-29T15:46:23.786Z,2.75
2022-07-29T15:48:50.523Z,2.75
2022-07-29T15:51:17.350Z,2.65
2022-07-29T15:53:44.076Z,2.50
2022-07-29T15:56:20.290Z,2.47
2022-07-29T15:58:46.884Z,2.20
2022-07-29T16:01:13.605Z,2.20
2022-07-29T16:03:45.690Z,2.20
2022-07-29T16:06:13.504Z,2.22
2022-07-29T16:08:40.115Z,2.20
2022-07-29T16:11:06.738Z,2.10
2022-07-29T16:13:33.490Z,2.28
2022-07-29T16:16:02.803Z,2.00
2022-07-29T16:18:30.641Z,1.83
2022-07-29T16:20:57.741Z,1.90
2022-07-29T16:23:24.735Z,2.10
2022-07-29T16:25:59.625Z,1.95
2022-07-29T16:28:27.664Z,1.85
2022-07-29T16:30:54.205Z,1.75
2022-07-29T16:33:20.920Z,2.97
2022-07-29T16:35:47.442Z,3.60
2022-07-29T16:38:14.053Z,3.20
2022-07-29T16:40:40.784Z,2.80
2022-07-29T16:43:08.324Z,3.05
2022-07-29T16:45:43.896Z,3.10
2022-07-29T16:48:14.074Z,3.63
2022-07-29T16:50:40.989Z,3.30
2022-07-29T16:53:10.271Z,3.00
2022-07-29T16:55:37.038Z,3.10
2022-07-29T16:58:03.628Z,3.17
2022-07-29T17:00:30.260Z,2.70
2022-07-29T17:02:56.928Z,2.40
2022-07-29T17:05:23.683Z,2.58
2022-07-29T17:07:50.272Z,2.88
2022-07-29T17:10:17.426Z,2.60
2022-07-29T17:12:44.683Z,2.30
2022-07-29T17:15:12.491Z,2.40
2022-07-29T17:17:54.988Z,2.28
2022-07-29T17:20:22.556Z,2.40
2022-07-29T17:22:49.229Z,2.08
2022-07-29T17:25:20.669Z,2.30
2022-07-29T17:27:49.723Z,2.50
2022-07-29T17:30:16.842Z,2.10
2022-07-29T17:32:43.412Z,2.20
2022-07-29T17:35:39.306Z,1.90
2022-07-29T17:38:05.934Z,2.25
2022-07-29T17:40:32.580Z,2.30
2022-07-29T17:42:59.246Z,2.40
2022-07-29T17:45:26.268Z,2.40
2022-07-29T17:48:13.168Z,2.20
2022-07-29T17:50:39.913Z,2.50
2022-07-29T17:53:15.955Z,2.10
2022-07-29T17:55:45.432Z,2.20
2022-07-29T17:58:12.266Z,2.10
2022-07-29T18:00:39.110Z,2.40
2022-07-29T18:03:05.919Z,2.55
2022-07-29T18:05:32.803Z,2.42
2022-07-29T18:07:59.545Z,2.10
2022-07-29T18:10:26.205Z,2.78
2022-07-29T18:12:52.794Z,2.97
2022-07-29T18:15:19.560Z,2.88
2022-07-29T18:17:56.641Z,2.72
2022-07-29T18:20:27.356Z,2.38
2022-07-29T18:22:53.927Z,2.40
2022-07-29T18:25:20.820Z,2.97
2022-07-29T18:27:47.377Z,2.47
2022-07-29T18:30:15.217Z,2.67
2022-07-29T18:32:54.329Z,2.42
2022-07-29T18:35:29.034Z,2.30
2022-07-29T18:38:01.346Z,1.98
2022-07-29T18:40:29.637Z,2.22
2022-07-29T18:42:56.266Z,2.10
2022-07-29T18:45:23.029Z,1.88
2022-07-29T18:47:55.425Z,2.25
2022-07-29T18:50:28.862Z,1.92
2022-07-29T18:52:58.403Z,2.28
2022-07-29T18:55:26.193Z,1.90
2022-07-29T18:57:54.189Z,1.73
2022-07-29T19:00:22.782Z,2.08
2022-07-29T19:02:49.962Z,2.38
2022-07-29T19:05:16.633Z,2.00
2022-07-29T19:07:43.211Z,2.13
2022-07-29T19:10:10.055Z,2.03
2022-07-29T19:12:36.933Z,2.13
2022-07-29T19:15:03.731Z,2.25
2022-07-29T19:17:30.407Z,2.10
2022-07-29T19:19:57.162Z,2.40
2022-07-29T19:22:23.770Z,2.13
2022-07-29T19:24:53.050Z,2.38
2022-07-29T19:27:19.969Z,2.50
2022-07-29T19:29:48.167Z,2.78
2022-07-29T19:32:24.794Z,2.70
2022-07-29T19:35:10.379Z,2.63
2022-07-29T19:37:37.494Z,2.70
2022-07-29T19:40:05.479Z,2.75
2022-07-29T19:42:31.966Z,3.08
2022-07-29T19:44:58.483Z,2.80
2022-07-29T19:47:24.992Z,3.05
2022-07-29T19:49:51.580Z,3.10
2022-07-29T19:52:18.128Z,2.92
2022-07-29T19:54:44.677Z,3.15
2022-07-29T19:57:11.198Z,3.05
2022-07-29T19:59:37.769Z,3.03
2022-07-29T20:02:04.602Z,2.97
2022-07-29T20:04:31.275Z,3.10
2022-07-29T20:07:01.452Z,3.28
2022-07-29T20:09:28.854Z,3.25
2022-07-29T20:11:55.547Z,3.05
2022-07-29T20:14:22.597Z,3.05
2022-07-29T20:16:49.909Z,3.10
2022-07-29T20:19:16.735Z,3.55
2022-07-29T20:21:43.266Z,3.33
2022-07-29T20:24:10.395Z,3.13
2022-07-29T20:26:36.915Z,3.53
2022-07-29T20:29:05.231Z,3.60
2022-07-29T20:31:32.465Z,3.30
2022-07-29T20:33:59.254Z,3.42
2022-07-29T20:36:25.834Z,3.20
2022-07-29T20:38:52.446Z,3.10
2022-07-29T20:41:19.052Z,3.70
2022-07-29T20:43:45.677Z,3.25
2022-07-29T20:46:12.434Z,3.55
2022-07-29T20:48:40.514Z,3.30
2022-07-29T20:51:07.285Z,3.17
2022-07-29T20:53:34.103Z,3.13
2022-07-29T20:56:00.673Z,3.25
2022-07-29T20:58:27.202Z,3.50
2022-07-29T21:00:53.859Z,3.00
2022-07-29T21:03:21.066Z,3.55
2022-07-29T21:05:47.761Z,3.17
2022-07-29T21:08:14.757Z,2.90
2022-07-29T21:10:41.289Z,3.20
2022-07-29T21:13:07.851Z,3.40
2022-07-29T21:15:35.025Z,3.33
2022-07-29T21:18:06.039Z,3.08
2022-07-29T21:20:32.548Z,3.13
2022-07-29T21:22:59.100Z,2.95
2022-07-29T21:25:27.088Z,3.10
2022-07-29T21:28:11.995Z,2.90
2022-07-29T21:30:38.673Z,3.05
2022-07-29T21:33:05.289Z,2.78
2022-07-29T21:36:06.884Z,2.80
2022-07-29T21:38:19.025Z,3.00
2022-07-29T21:40:47.126Z,3.15
2022-07-29T21:43:15.277Z,3.03
2022-07-29T21:45:42.621Z,3.25
2022-07-29T21:48:09.299Z,3.40
2022-07-29T21:50:36.420Z,3.10
2022-07-29T21:53:02.961Z,3.40
2022-07-29T21:55:31.113Z,2.95
2022-07-29T21:57:59.164Z,2.63
2022-07-29T22:00:25.872Z,2.72
2022-07-29T22:02:53.229Z,3.33
2022-07-29T22:05:20.308Z,3.10
2022-07-29T22:07:56.477Z,3.00
2022-07-29T22:10:25.671Z,2.92
2022-07-29T22:12:53.591Z,3.38
2022-07-29T22:15:20.291Z,3.30
2022-07-29T22:17:47.903Z,2.90
2022-07-29T22:20:14.914Z,3.40
2022-07-29T22:22:41.694Z,3.33
2022-07-29T22:25:10.107Z,3.25
2022-07-29T22:27:37.044Z,3.40
2022-07-29T22:30:05.705Z,2.97
2022-07-29T22:32:32.647Z,3.65
2022-07-29T22:34:59.293Z,3.15
2022-07-29T22:37:26.040Z,3.35
2022-07-29T22:39:52.559Z,3.30
2022-07-29T22:42:19.517Z,3.53
2022-07-29T22:44:46.025Z,2.95
2022-07-29T22:47:12.540Z,3.35
2022-07-29T22:49:39.033Z,3.33
2022-07-29T22:52:05.851Z,3.50
2022-07-29T22:54:32.460Z,3.28
2022-07-29T22:56:59.249Z,3.45
2022-07-29T22:59:25.998Z,3.15
2022-07-29T23:01:52.523Z,3.10
2022-07-29T23:04:26.095Z,3.30
2022-07-29T23:06:52.696Z,3.03
2022-07-29T23:09:19.240Z,3.45
2022-07-29T23:11:47.094Z,2.80
2022-07-29T23:14:13.719Z,3.63
2022-07-29T23:16:40.289Z,2.90
2022-07-29T23:19:06.904Z,3.45
2022-07-29T23:21:33.550Z,3.05
2022-07-29T23:24:00.131Z,3.03
2022-07-29T23:26:26.758Z,3.22
2022-07-29T23:28:53.303Z,3.30
2022-07-29T23:31:19.887Z,3.53
2022-07-29T23:33:46.479Z,3.10
2022-07-29T23:36:13.091Z,3.25
2022-07-29T23:38:40.941Z,3.03
2022-07-29T23:41:09.663Z,3.00
2022-07-29T23:43:37.362Z,3.20
2022-07-29T23:46:04.700Z,3.17
2022-07-29T23:48:32.981Z,3.58
2022-07-29T23:51:01.080Z,3.38
2022-07-29T23:53:28.299Z,3.65
2022-07-29T23:55:55.534Z,3.00
2022-07-29T23:58:22.115Z,3.00
